sensor_id;sensor_type;location;lat;lon;timestamp;P1;durP1;ratioP1;P2;durP2;ratioP2
19998;SDS011;10160;50.926;4.374;2023-05-14T00:00:50;81.57;;;43.90;;
19998;SDS011;10160;50.926;4.374;2023-05-14T00:03:16;76.50;;;42.07;;
19998;SDS011;10160;50.926;4.374;2023-05-14T00:05:42;74.60;;;41.17;;
19998;SDS011;10160;50.926;4.374;2023-05-14T00:08:07;78.07;;;42.40;;
19998;SDS011;10160;50.926;4.374;2023-05-14T00:10:33;82.13;;;43.77;;
19998;SDS011;10160;50.926;4.374;2023-05-14T00:12:59;77.13;;;43.23;;
19998;SDS011;10160;50.926;4.374;2023-05-14T00:15:25;95.83;;;43.73;;
19998;SDS011;10160;50.926;4.374;2023-05-14T00:17:50;82.87;;;44.00;;
19998;SDS011;10160;50.926;4.374;2023-05-14T00:20:16;83.93;;;43.03;;
19998;SDS011;10160;50.926;4.374;2023-05-14T00:22:42;83.50;;;43.43;;
19998;SDS011;10160;50.926;4.374;2023-05-14T00:25:08;83.33;;;43.67;;
19998;SDS011;10160;50.926;4.374;2023-05-14T00:27:34;90.03;;;44.63;;
19998;SDS011;10160;50.926;4.374;2023-05-14T00:30:02;86.40;;;44.13;;
19998;SDS011;10160;50.926;4.374;2023-05-14T00:32:29;91.43;;;45.63;;
19998;SDS011;10160;50.926;4.374;2023-05-14T00:34:55;90.67;;;46.27;;
19998;SDS011;10160;50.926;4.374;2023-05-14T00:37:21;81.73;;;44.77;;
19998;SDS011;10160;50.926;4.374;2023-05-14T00:39:47;90.17;;;45.67;;
19998;SDS011;10160;50.926;4.374;2023-05-14T00:42:12;94.10;;;48.20;;
19998;SDS011;10160;50.926;4.374;2023-05-14T00:44:38;87.57;;;47.33;;
19998;SDS011;10160;50.926;4.374;2023-05-14T00:47:04;89.30;;;45.13;;
19998;SDS011;10160;50.926;4.374;2023-05-14T00:49:30;95.00;;;48.77;;
19998;SDS011;10160;50.926;4.374;2023-05-14T00:51:56;109.87;;;51.10;;
19998;SDS011;10160;50.926;4.374;2023-05-14T00:54:23;98.07;;;47.43;;
19998;SDS011;10160;50.926;4.374;2023-05-14T00:56:49;92.97;;;47.67;;
19998;SDS011;10160;50.926;4.374;2023-05-14T00:59:15;94.63;;;48.33;;
19998;SDS011;10160;50.926;4.374;2023-05-14T01:01:40;97.57;;;48.43;;
19998;SDS011;10160;50.926;4.374;2023-05-14T01:04:06;91.40;;;47.43;;
19998;SDS011;10160;50.926;4.374;2023-05-14T01:12:09;95.50;;;48.17;;
19998;SDS011;10160;50.926;4.374;2023-05-14T01:14:44;103.70;;;51.40;;
19998;SDS011;10160;50.926;4.374;2023-05-14T01:17:27;86.43;;;46.67;;
19998;SDS011;10160;50.926;4.374;2023-05-14T01:19:56;91.13;;;47.10;;
19998;SDS011;10160;50.926;4.374;2023-05-14T01:22:24;94.07;;;49.60;;
19998;SDS011;10160;50.926;4.374;2023-05-14T01:24:49;101.93;;;49.33;;
19998;SDS011;10160;50.926;4.374;2023-05-14T01:27:21;110.03;;;49.13;;
19998;SDS011;10160;50.926;4.374;2023-05-14T01:33:05;93.83;;;49.00;;
19998;SDS011;10160;50.926;4.374;2023-05-14T01:35:35;98.67;;;47.17;;
19998;SDS011;10160;50.926;4.374;2023-05-14T01:38:02;101.87;;;49.07;;
19998;SDS011;10160;50.926;4.374;2023-05-14T01:40:30;89.27;;;47.20;;
19998;SDS011;10160;50.926;4.374;2023-05-14T01:42:58;94.03;;;47.13;;
19998;SDS011;10160;50.926;4.374;2023-05-14T01:45:24;102.90;;;48.57;;
19998;SDS011;10160;50.926;4.374;2023-05-14T01:47:51;106.47;;;50.17;;
19998;SDS011;10160;50.926;4.374;2023-05-14T01:50:17;94.50;;;45.57;;
19998;SDS011;10160;50.926;4.374;2023-05-14T01:52:43;102.37;;;49.10;;
19998;SDS011;10160;50.926;4.374;2023-05-14T01:55:09;100.53;;;48.90;;
19998;SDS011;10160;50.926;4.374;2023-05-14T01:57:34;94.53;;;49.20;;
19998;SDS011;10160;50.926;4.374;2023-05-14T02:00:00;100.60;;;48.83;;
19998;SDS011;10160;50.926;4.374;2023-05-14T02:02:27;97.70;;;48.30;;
19998;SDS011;10160;50.926;4.374;2023-05-14T02:04:53;95.90;;;46.73;;
19998;SDS011;10160;50.926;4.374;2023-05-14T02:07:19;103.67;;;49.13;;
19998;SDS011;10160;50.926;4.374;2023-05-14T02:09:45;100.33;;;47.00;;
19998;SDS011;10160;50.926;4.374;2023-05-14T02:12:10;93.83;;;45.67;;
19998;SDS011;10160;50.926;4.374;2023-05-14T02:14:36;100.93;;;46.77;;
19998;SDS011;10160;50.926;4.374;2023-05-14T02:17:02;91.50;;;48.53;;
19998;SDS011;10160;50.926;4.374;2023-05-14T02:19:28;92.50;;;45.17;;
19998;SDS011;10160;50.926;4.374;2023-05-14T02:21:54;100.53;;;46.80;;
19998;SDS011;10160;50.926;4.374;2023-05-14T02:24:20;101.67;;;47.70;;
19998;SDS011;10160;50.926;4.374;2023-05-14T02:26:45;96.63;;;46.80;;
19998;SDS011;10160;50.926;4.374;2023-05-14T02:29:11;94.83;;;45.70;;
19998;SDS011;10160;50.926;4.374;2023-05-14T02:31:37;94.80;;;46.03;;
19998;SDS011;10160;50.926;4.374;2023-05-14T02:34:03;94.67;;;46.80;;
19998;SDS011;10160;50.926;4.374;2023-05-14T02:36:30;101.87;;;47.90;;
19998;SDS011;10160;50.926;4.374;2023-05-14T02:38:57;103.53;;;47.40;;
19998;SDS011;10160;50.926;4.374;2023-05-14T02:41:24;101.27;;;48.93;;
19998;SDS011;10160;50.926;4.374;2023-05-14T02:43:49;100.50;;;46.80;;
19998;SDS011;10160;50.926;4.374;2023-05-14T02:46:16;98.10;;;48.27;;
19998;SDS011;10160;50.926;4.374;2023-05-14T02:48:41;102.30;;;47.27;;
19998;SDS011;10160;50.926;4.374;2023-05-14T02:51:07;97.87;;;46.50;;
19998;SDS011;10160;50.926;4.374;2023-05-14T02:53:33;97.00;;;47.10;;
19998;SDS011;10160;50.926;4.374;2023-05-14T02:55:59;105.50;;;48.33;;
19998;SDS011;10160;50.926;4.374;2023-05-14T02:58:24;99.40;;;47.23;;
19998;SDS011;10160;50.926;4.374;2023-05-14T03:00:50;95.53;;;47.37;;
19998;SDS011;10160;50.926;4.374;2023-05-14T03:03:17;95.00;;;48.80;;
19998;SDS011;10160;50.926;4.374;2023-05-14T03:05:43;92.10;;;47.87;;
19998;SDS011;10160;50.926;4.374;2023-05-14T03:08:09;99.67;;;48.33;;
19998;SDS011;10160;50.926;4.374;2023-05-14T03:10:35;98.30;;;47.73;;
19998;SDS011;10160;50.926;4.374;2023-05-14T03:13:01;102.63;;;48.73;;
19998;SDS011;10160;50.926;4.374;2023-05-14T03:15:27;96.57;;;47.63;;
19998;SDS011;10160;50.926;4.374;2023-05-14T03:17:52;99.07;;;48.23;;
19998;SDS011;10160;50.926;4.374;2023-05-14T03:20:18;92.83;;;47.77;;
19998;SDS011;10160;50.926;4.374;2023-05-14T03:22:44;101.60;;;49.00;;
19998;SDS011;10160;50.926;4.374;2023-05-14T03:25:10;103.87;;;47.23;;
19998;SDS011;10160;50.926;4.374;2023-05-14T03:27:36;92.80;;;47.23;;
19998;SDS011;10160;50.926;4.374;2023-05-14T03:30:01;98.43;;;47.40;;
19998;SDS011;10160;50.926;4.374;2023-05-14T03:32:28;102.30;;;45.50;;
19998;SDS011;10160;50.926;4.374;2023-05-14T03:34:54;91.30;;;47.00;;
19998;SDS011;10160;50.926;4.374;2023-05-14T03:37:20;103.87;;;48.33;;
19998;SDS011;10160;50.926;4.374;2023-05-14T03:39:45;101.87;;;48.73;;
19998;SDS011;10160;50.926;4.374;2023-05-14T03:42:11;99.13;;;46.70;;
19998;SDS011;10160;50.926;4.374;2023-05-14T03:44:37;106.07;;;47.67;;
19998;SDS011;10160;50.926;4.374;2023-05-14T03:47:02;98.83;;;47.60;;
19998;SDS011;10160;50.926;4.374;2023-05-14T03:49:28;101.07;;;46.60;;
19998;SDS011;10160;50.926;4.374;2023-05-14T03:51:54;86.00;;;44.00;;
19998;SDS011;10160;50.926;4.374;2023-05-14T03:54:21;99.73;;;47.30;;
19998;SDS011;10160;50.926;4.374;2023-05-14T03:56:47;102.93;;;47.93;;
19998;SDS011;10160;50.926;4.374;2023-05-14T03:59:12;102.50;;;47.87;;
19998;SDS011;10160;50.926;4.374;2023-05-14T04:01:38;95.57;;;45.70;;
19998;SDS011;10160;50.926;4.374;2023-05-14T04:04:04;97.90;;;46.63;;
19998;SDS011;10160;50.926;4.374;2023-05-14T04:06:29;98.40;;;44.10;;
19998;SDS011;10160;50.926;4.374;2023-05-14T04:08:56;96.17;;;46.13;;
19998;SDS011;10160;50.926;4.374;2023-05-14T04:11:22;105.53;;;47.60;;
19998;SDS011;10160;50.926;4.374;2023-05-14T04:13:48;107.43;;;48.60;;
19998;SDS011;10160;50.926;4.374;2023-05-14T04:16:13;106.07;;;47.30;;
19998;SDS011;10160;50.926;4.374;2023-05-14T04:18:39;115.47;;;48.33;;
19998;SDS011;10160;50.926;4.374;2023-05-14T04:21:05;107.63;;;48.50;;
19998;SDS011;10160;50.926;4.374;2023-05-14T04:23:30;97.23;;;48.57;;
19998;SDS011;10160;50.926;4.374;2023-05-14T04:25:56;106.67;;;49.30;;
19998;SDS011;10160;50.926;4.374;2023-05-14T04:28:22;98.20;;;45.90;;
19998;SDS011;10160;50.926;4.374;2023-05-14T04:30:48;100.97;;;48.00;;
19998;SDS011;10160;50.926;4.374;2023-05-14T04:33:14;104.23;;;48.40;;
19998;SDS011;10160;50.926;4.374;2023-05-14T04:35:40;99.73;;;47.03;;
19998;SDS011;10160;50.926;4.374;2023-05-14T04:38:06;104.90;;;47.47;;
19998;SDS011;10160;50.926;4.374;2023-05-14T04:40:31;99.90;;;46.40;;
19998;SDS011;10160;50.926;4.374;2023-05-14T04:42:57;99.97;;;47.37;;
19998;SDS011;10160;50.926;4.374;2023-05-14T04:45:22;97.93;;;47.67;;
19998;SDS011;10160;50.926;4.374;2023-05-14T04:47:48;96.93;;;48.03;;
19998;SDS011;10160;50.926;4.374;2023-05-14T04:50:14;97.93;;;44.70;;
19998;SDS011;10160;50.926;4.374;2023-05-14T04:52:40;105.40;;;48.23;;
19998;SDS011;10160;50.926;4.374;2023-05-14T04:55:06;90.50;;;45.63;;
19998;SDS011;10160;50.926;4.374;2023-05-14T04:57:32;107.33;;;48.10;;
19998;SDS011;10160;50.926;4.374;2023-05-14T04:59:58;105.37;;;48.67;;
19998;SDS011;10160;50.926;4.374;2023-05-14T05:02:23;95.47;;;44.23;;
19998;SDS011;10160;50.926;4.374;2023-05-14T05:04:49;97.27;;;46.43;;
19998;SDS011;10160;50.926;4.374;2023-05-14T05:07:15;102.43;;;47.00;;
19998;SDS011;10160;50.926;4.374;2023-05-14T05:09:41;96.93;;;47.13;;
19998;SDS011;10160;50.926;4.374;2023-05-14T05:12:08;96.13;;;46.97;;
19998;SDS011;10160;50.926;4.374;2023-05-14T05:14:33;94.60;;;44.27;;
19998;SDS011;10160;50.926;4.374;2023-05-14T05:16:59;107.50;;;47.87;;
19998;SDS011;10160;50.926;4.374;2023-05-14T05:19:25;104.63;;;46.93;;
19998;SDS011;10160;50.926;4.374;2023-05-14T05:21:50;101.40;;;47.53;;
19998;SDS011;10160;50.926;4.374;2023-05-14T05:24:16;99.00;;;46.80;;
19998;SDS011;10160;50.926;4.374;2023-05-14T05:26:42;102.93;;;45.83;;
19998;SDS011;10160;50.926;4.374;2023-05-14T05:29:08;101.80;;;45.13;;
19998;SDS011;10160;50.926;4.374;2023-05-14T05:31:33;103.70;;;44.93;;
19998;SDS011;10160;50.926;4.374;2023-05-14T05:33:59;99.73;;;45.90;;
19998;SDS011;10160;50.926;4.374;2023-05-14T05:36:25;101.50;;;46.23;;
19998;SDS011;10160;50.926;4.374;2023-05-14T05:38:51;104.20;;;47.53;;
19998;SDS011;10160;50.926;4.374;2023-05-14T05:41:17;98.70;;;47.03;;
19998;SDS011;10160;50.926;4.374;2023-05-14T05:43:43;92.80;;;46.17;;
19998;SDS011;10160;50.926;4.374;2023-05-14T05:46:08;96.37;;;45.53;;
19998;SDS011;10160;50.926;4.374;2023-05-14T05:48:34;102.80;;;48.17;;
19998;SDS011;10160;50.926;4.374;2023-05-14T05:51:00;101.23;;;45.83;;
19998;SDS011;10160;50.926;4.374;2023-05-14T05:53:25;93.03;;;44.67;;
19998;SDS011;10160;50.926;4.374;2023-05-14T05:55:51;99.03;;;46.80;;
19998;SDS011;10160;50.926;4.374;2023-05-14T05:58:17;90.20;;;44.87;;
19998;SDS011;10160;50.926;4.374;2023-05-14T06:00:43;95.47;;;43.50;;
19998;SDS011;10160;50.926;4.374;2023-05-14T06:03:10;99.53;;;44.35;;
19998;SDS011;10160;50.926;4.374;2023-05-14T06:05:35;93.13;;;42.57;;
19998;SDS011;10160;50.926;4.374;2023-05-14T06:08:01;92.43;;;43.00;;
19998;SDS011;10160;50.926;4.374;2023-05-14T06:10:27;84.27;;;42.77;;
19998;SDS011;10160;50.926;4.374;2023-05-14T06:12:53;86.70;;;42.53;;
19998;SDS011;10160;50.926;4.374;2023-05-14T06:15:18;89.63;;;42.50;;
19998;SDS011;10160;50.926;4.374;2023-05-14T06:17:44;91.80;;;41.80;;
19998;SDS011;10160;50.926;4.374;2023-05-14T06:20:10;89.73;;;40.47;;
19998;SDS011;10160;50.926;4.374;2023-05-14T06:22:36;83.40;;;41.23;;
19998;SDS011;10160;50.926;4.374;2023-05-14T06:25:02;79.00;;;39.70;;
19998;SDS011;10160;50.926;4.374;2023-05-14T06:27:28;81.03;;;39.90;;
19998;SDS011;10160;50.926;4.374;2023-05-14T06:29:54;78.27;;;37.47;;
19998;SDS011;10160;50.926;4.374;2023-05-14T06:32:20;83.80;;;40.37;;
19998;SDS011;10160;50.926;4.374;2023-05-14T06:34:46;83.27;;;40.60;;
19998;SDS011;10160;50.926;4.374;2023-05-14T06:37:12;85.77;;;39.03;;
19998;SDS011;10160;50.926;4.374;2023-05-14T06:39:39;78.90;;;38.53;;
19998;SDS011;10160;50.926;4.374;2023-05-14T06:42:10;81.10;;;40.10;;
19998;SDS011;10160;50.926;4.374;2023-05-14T06:44:36;79.13;;;39.27;;
19998;SDS011;10160;50.926;4.374;2023-05-14T06:47:01;84.07;;;40.70;;
19998;SDS011;10160;50.926;4.374;2023-05-14T06:49:27;84.60;;;39.83;;
19998;SDS011;10160;50.926;4.374;2023-05-14T06:51:53;81.53;;;37.97;;
19998;SDS011;10160;50.926;4.374;2023-05-14T06:54:19;82.03;;;39.40;;
19998;SDS011;10160;50.926;4.374;2023-05-14T06:56:45;76.10;;;39.07;;
19998;SDS011;10160;50.926;4.374;2023-05-14T06:59:10;72.77;;;37.13;;
19998;SDS011;10160;50.926;4.374;2023-05-14T07:01:36;79.07;;;37.53;;
19998;SDS011;10160;50.926;4.374;2023-05-14T07:04:02;79.87;;;39.97;;
19998;SDS011;10160;50.926;4.374;2023-05-14T07:06:28;74.17;;;37.63;;
19998;SDS011;10160;50.926;4.374;2023-05-14T07:08:53;72.43;;;36.77;;
19998;SDS011;10160;50.926;4.374;2023-05-14T07:11:19;75.97;;;37.67;;
19998;SDS011;10160;50.926;4.374;2023-05-14T07:13:46;65.00;;;34.50;;
19998;SDS011;10160;50.926;4.374;2023-05-14T07:16:11;73.97;;;37.50;;
19998;SDS011;10160;50.926;4.374;2023-05-14T07:18:37;71.23;;;37.60;;
19998;SDS011;10160;50.926;4.374;2023-05-14T07:21:03;75.17;;;37.67;;
19998;SDS011;10160;50.926;4.374;2023-05-14T07:23:31;72.70;;;37.63;;
19998;SDS011;10160;50.926;4.374;2023-05-14T07:25:57;67.83;;;34.97;;
19998;SDS011;10160;50.926;4.374;2023-05-14T07:28:23;61.93;;;34.20;;
19998;SDS011;10160;50.926;4.374;2023-05-14T07:30:48;69.40;;;35.90;;
19998;SDS011;10160;50.926;4.374;2023-05-14T07:33:14;68.73;;;35.43;;
19998;SDS011;10160;50.926;4.374;2023-05-14T07:35:40;69.77;;;36.57;;
19998;SDS011;10160;50.926;4.374;2023-05-14T07:38:06;65.67;;;36.07;;
19998;SDS011;10160;50.926;4.374;2023-05-14T07:40:32;63.40;;;34.87;;
19998;SDS011;10160;50.926;4.374;2023-05-14T07:42:57;60.77;;;33.57;;
19998;SDS011;10160;50.926;4.374;2023-05-14T07:45:23;67.17;;;35.93;;
19998;SDS011;10160;50.926;4.374;2023-05-14T07:47:49;67.83;;;35.13;;
19998;SDS011;10160;50.926;4.374;2023-05-14T07:50:16;59.60;;;33.50;;
19998;SDS011;10160;50.926;4.374;2023-05-14T07:52:42;60.40;;;33.53;;
19998;SDS011;10160;50.926;4.374;2023-05-14T07:55:09;63.13;;;34.33;;
19998;SDS011;10160;50.926;4.374;2023-05-14T07:57:34;59.40;;;32.67;;
19998;SDS011;10160;50.926;4.374;2023-05-14T08:00:01;63.97;;;33.87;;
19998;SDS011;10160;50.926;4.374;2023-05-14T08:02:28;63.90;;;33.97;;
19998;SDS011;10160;50.926;4.374;2023-05-14T08:04:54;59.70;;;33.10;;
19998;SDS011;10160;50.926;4.374;2023-05-14T08:07:19;71.53;;;34.77;;
19998;SDS011;10160;50.926;4.374;2023-05-14T08:09:45;56.93;;;29.50;;
19998;SDS011;10160;50.926;4.374;2023-05-14T08:12:11;55.87;;;32.67;;
19998;SDS011;10160;50.926;4.374;2023-05-14T08:14:37;53.80;;;31.17;;
19998;SDS011;10160;50.926;4.374;2023-05-14T08:17:03;53.53;;;30.70;;
19998;SDS011;10160;50.926;4.374;2023-05-14T08:19:28;53.87;;;32.07;;
19998;SDS011;10160;50.926;4.374;2023-05-14T08:21:54;54.85;;;32.20;;
19998;SDS011;10160;50.926;4.374;2023-05-14T08:24:20;55.78;;;30.92;;
19998;SDS011;10160;50.926;4.374;2023-05-14T08:26:45;50.63;;;28.80;;
19998;SDS011;10160;50.926;4.374;2023-05-14T08:29:11;52.63;;;31.20;;
19998;SDS011;10160;50.926;4.374;2023-05-14T08:31:37;48.83;;;30.35;;
19998;SDS011;10160;50.926;4.374;2023-05-14T08:34:02;52.55;;;29.60;;
19998;SDS011;10160;50.926;4.374;2023-05-14T08:36:28;41.85;;;27.85;;
19998;SDS011;10160;50.926;4.374;2023-05-14T08:38:54;47.40;;;30.02;;
19998;SDS011;10160;50.926;4.374;2023-05-14T08:41:19;48.88;;;28.05;;
19998;SDS011;10160;50.926;4.374;2023-05-14T08:46:20;50.92;;;30.48;;
19998;SDS011;10160;50.926;4.374;2023-05-14T08:48:49;54.28;;;29.88;;
19998;SDS011;10160;50.926;4.374;2023-05-14T08:51:22;48.28;;;30.58;;
19998;SDS011;10160;50.926;4.374;2023-05-14T08:53:48;49.58;;;30.38;;
19998;SDS011;10160;50.926;4.374;2023-05-14T08:56:15;43.97;;;28.73;;
19998;SDS011;10160;50.926;4.374;2023-05-14T08:58:43;52.25;;;29.25;;
19998;SDS011;10160;50.926;4.374;2023-05-14T09:01:09;45.33;;;30.02;;
19998;SDS011;10160;50.926;4.374;2023-05-14T09:03:35;46.85;;;28.10;;
19998;SDS011;10160;50.926;4.374;2023-05-14T09:06:01;47.03;;;27.05;;
19998;SDS011;10160;50.926;4.374;2023-05-14T09:08:28;46.13;;;29.58;;
19998;SDS011;10160;50.926;4.374;2023-05-14T09:10:54;49.83;;;30.63;;
19998;SDS011;10160;50.926;4.374;2023-05-14T09:13:19;47.13;;;29.48;;
19998;SDS011;10160;50.926;4.374;2023-05-14T09:15:45;45.45;;;28.13;;
19998;SDS011;10160;50.926;4.374;2023-05-14T09:18:13;45.35;;;28.13;;
19998;SDS011;10160;50.926;4.374;2023-05-14T09:20:39;42.83;;;28.95;;
19998;SDS011;10160;50.926;4.374;2023-05-14T09:23:05;46.10;;;28.70;;
19998;SDS011;10160;50.926;4.374;2023-05-14T09:25:31;44.13;;;27.75;;
19998;SDS011;10160;50.926;4.374;2023-05-14T09:27:57;41.38;;;27.30;;
19998;SDS011;10160;50.926;4.374;2023-05-14T09:30:23;42.83;;;27.63;;
19998;SDS011;10160;50.926;4.374;2023-05-14T09:32:52;45.88;;;27.90;;
19998;SDS011;10160;50.926;4.374;2023-05-14T09:35:20;39.35;;;27.45;;
19998;SDS011;10160;50.926;4.374;2023-05-14T09:37:48;45.17;;;27.10;;
19998;SDS011;10160;50.926;4.374;2023-05-14T09:40:15;40.42;;;25.38;;
19998;SDS011;10160;50.926;4.374;2023-05-14T09:42:42;42.92;;;25.85;;
19998;SDS011;10160;50.926;4.374;2023-05-14T09:45:08;39.33;;;25.83;;
19998;SDS011;10160;50.926;4.374;2023-05-14T09:47:35;37.35;;;26.58;;
19998;SDS011;10160;50.926;4.374;2023-05-14T09:50:01;47.60;;;27.35;;
19998;SDS011;10160;50.926;4.374;2023-05-14T09:52:28;40.45;;;25.20;;
19998;SDS011;10160;50.926;4.374;2023-05-14T09:54:53;42.92;;;25.83;;
19998;SDS011;10160;50.926;4.374;2023-05-14T09:57:19;42.00;;;26.52;;
19998;SDS011;10160;50.926;4.374;2023-05-14T09:59:45;39.60;;;25.27;;
19998;SDS011;10160;50.926;4.374;2023-05-14T10:02:21;37.17;;;25.60;;
19998;SDS011;10160;50.926;4.374;2023-05-14T10:04:52;34.17;;;24.13;;
19998;SDS011;10160;50.926;4.374;2023-05-14T10:07:22;33.67;;;23.70;;
19998;SDS011;10160;50.926;4.374;2023-05-14T10:09:53;36.65;;;24.58;;
19998;SDS011;10160;50.926;4.374;2023-05-14T10:12:23;34.13;;;22.83;;
19998;SDS011;10160;50.926;4.374;2023-05-14T10:14:53;35.22;;;23.17;;
19998;SDS011;10160;50.926;4.374;2023-05-14T10:17:23;35.60;;;23.05;;
19998;SDS011;10160;50.926;4.374;2023-05-14T10:19:55;38.55;;;23.20;;
19998;SDS011;10160;50.926;4.374;2023-05-14T10:22:23;35.78;;;22.23;;
19998;SDS011;10160;50.926;4.374;2023-05-14T10:24:55;38.00;;;22.60;;
19998;SDS011;10160;50.926;4.374;2023-05-14T10:27:21;34.63;;;22.55;;
19998;SDS011;10160;50.926;4.374;2023-05-14T10:29:51;36.22;;;22.98;;
19998;SDS011;10160;50.926;4.374;2023-05-14T10:32:18;35.72;;;22.23;;
19998;SDS011;10160;50.926;4.374;2023-05-14T10:34:49;32.28;;;21.23;;
19998;SDS011;10160;50.926;4.374;2023-05-14T10:37:19;31.42;;;21.38;;
19998;SDS011;10160;50.926;4.374;2023-05-14T10:39:50;35.40;;;22.10;;
19998;SDS011;10160;50.926;4.374;2023-05-14T10:42:25;35.50;;;21.95;;
19998;SDS011;10160;50.926;4.374;2023-05-14T10:44:59;33.25;;;21.17;;
19998;SDS011;10160;50.926;4.374;2023-05-14T10:47:31;36.50;;;22.13;;
19998;SDS011;10160;50.926;4.374;2023-05-14T10:49:58;32.63;;;21.25;;
19998;SDS011;10160;50.926;4.374;2023-05-14T10:52:26;35.88;;;22.55;;
19998;SDS011;10160;50.926;4.374;2023-05-14T10:54:52;37.10;;;21.90;;
19998;SDS011;10160;50.926;4.374;2023-05-14T10:57:29;30.10;;;20.13;;
19998;SDS011;10160;50.926;4.374;2023-05-14T10:59:56;28.95;;;19.10;;
19998;SDS011;10160;50.926;4.374;2023-05-14T11:02:34;33.35;;;21.30;;
19998;SDS011;10160;50.926;4.374;2023-05-14T11:05:05;34.10;;;19.85;;
19998;SDS011;10160;50.926;4.374;2023-05-14T11:07:38;35.40;;;19.63;;
19998;SDS011;10160;50.926;4.374;2023-05-14T11:10:10;29.00;;;19.05;;
19998;SDS011;10160;50.926;4.374;2023-05-14T11:12:42;29.42;;;18.67;;
19998;SDS011;10160;50.926;4.374;2023-05-14T11:15:10;28.55;;;19.00;;
19998;SDS011;10160;50.926;4.374;2023-05-14T11:17:39;29.23;;;18.65;;
19998;SDS011;10160;50.926;4.374;2023-05-14T11:20:06;31.08;;;19.50;;
19998;SDS011;10160;50.926;4.374;2023-05-14T11:22:36;32.33;;;19.67;;
19998;SDS011;10160;50.926;4.374;2023-05-14T11:25:03;32.63;;;19.17;;
19998;SDS011;10160;50.926;4.374;2023-05-14T11:27:32;30.90;;;19.52;;
19998;SDS011;10160;50.926;4.374;2023-05-14T11:29:58;37.83;;;20.10;;
19998;SDS011;10160;50.926;4.374;2023-05-14T11:32:25;31.17;;;19.35;;
19998;SDS011;10160;50.926;4.374;2023-05-14T11:34:51;30.33;;;18.13;;
19998;SDS011;10160;50.926;4.374;2023-05-14T11:37:16;32.03;;;18.27;;
19998;SDS011;10160;50.926;4.374;2023-05-14T11:39:46;32.05;;;19.05;;
19998;SDS011;10160;50.926;4.374;2023-05-14T11:42:13;31.23;;;19.15;;
19998;SDS011;10160;50.926;4.374;2023-05-14T11:44:41;29.23;;;19.02;;
19998;SDS011;10160;50.926;4.374;2023-05-14T11:47:09;27.25;;;18.27;;
19998;SDS011;10160;50.926;4.374;2023-05-14T11:49:35;26.85;;;18.35;;
19998;SDS011;10160;50.926;4.374;2023-05-14T11:52:02;28.83;;;18.70;;
19998;SDS011;10160;50.926;4.374;2023-05-14T11:54:30;33.53;;;20.83;;
19998;SDS011;10160;50.926;4.374;2023-05-14T11:56:57;27.67;;;18.10;;
19998;SDS011;10160;50.926;4.374;2023-05-14T11:59:24;29.30;;;20.25;;
19998;SDS011;10160;50.926;4.374;2023-05-14T12:01:55;26.73;;;18.05;;
19998;SDS011;10160;50.926;4.374;2023-05-14T12:04:21;33.85;;;19.48;;
19998;SDS011;10160;50.926;4.374;2023-05-14T12:06:50;31.33;;;19.45;;
19998;SDS011;10160;50.926;4.374;2023-05-14T12:09:20;33.67;;;19.63;;
19998;SDS011;10160;50.926;4.374;2023-05-14T12:11:47;27.27;;;17.90;;
19998;SDS011;10160;50.926;4.374;2023-05-14T12:16:48;31.17;;;18.90;;
19998;SDS011;10160;50.926;4.374;2023-05-14T12:19:16;29.10;;;17.15;;
19998;SDS011;10160;50.926;4.374;2023-05-14T12:21:43;27.83;;;17.10;;
19998;SDS011;10160;50.926;4.374;2023-05-14T12:24:12;29.52;;;19.90;;
19998;SDS011;10160;50.926;4.374;2023-05-14T12:26:43;29.70;;;19.02;;
19998;SDS011;10160;50.926;4.374;2023-05-14T12:29:11;24.42;;;17.02;;
19998;SDS011;10160;50.926;4.374;2023-05-14T12:31:43;26.98;;;17.85;;
19998;SDS011;10160;50.926;4.374;2023-05-14T12:34:14;27.30;;;18.17;;
19998;SDS011;10160;50.926;4.374;2023-05-14T12:36:40;26.35;;;18.83;;
19998;SDS011;10160;50.926;4.374;2023-05-14T12:39:06;30.58;;;17.85;;
19998;SDS011;10160;50.926;4.374;2023-05-14T12:41:33;29.65;;;17.88;;
19998;SDS011;10160;50.926;4.374;2023-05-14T12:44:00;30.75;;;18.42;;
19998;SDS011;10160;50.926;4.374;2023-05-14T12:46:27;26.10;;;17.95;;
19998;SDS011;10160;50.926;4.374;2023-05-14T12:48:53;29.73;;;18.10;;
19998;SDS011;10160;50.926;4.374;2023-05-14T12:51:19;26.15;;;18.52;;
19998;SDS011;10160;50.926;4.374;2023-05-14T12:53:45;27.95;;;17.88;;
19998;SDS011;10160;50.926;4.374;2023-05-14T12:56:11;25.50;;;16.30;;
19998;SDS011;10160;50.926;4.374;2023-05-14T12:58:37;25.58;;;17.42;;
19998;SDS011;10160;50.926;4.374;2023-05-14T13:01:03;29.35;;;16.27;;
19998;SDS011;10160;50.926;4.374;2023-05-14T13:03:29;24.55;;;15.35;;
19998;SDS011;10160;50.926;4.374;2023-05-14T13:05:55;27.98;;;17.60;;
19998;SDS011;10160;50.926;4.374;2023-05-14T13:08:21;26.25;;;16.73;;
19998;SDS011;10160;50.926;4.374;2023-05-14T13:10:50;29.25;;;18.70;;
19998;SDS011;10160;50.926;4.374;2023-05-14T13:13:20;20.38;;;14.27;;
19998;SDS011;10160;50.926;4.374;2023-05-14T13:15:46;28.40;;;16.77;;
19998;SDS011;10160;50.926;4.374;2023-05-14T13:18:13;22.70;;;15.50;;
19998;SDS011;10160;50.926;4.374;2023-05-14T13:20:38;21.70;;;14.45;;
19998;SDS011;10160;50.926;4.374;2023-05-14T13:23:04;24.55;;;14.32;;
19998;SDS011;10160;50.926;4.374;2023-05-14T13:25:30;20.77;;;14.20;;
19998;SDS011;10160;50.926;4.374;2023-05-14T13:27:56;20.90;;;14.05;;
19998;SDS011;10160;50.926;4.374;2023-05-14T13:30:22;19.67;;;13.13;;
19998;SDS011;10160;50.926;4.374;2023-05-14T13:32:48;23.98;;;14.68;;
19998;SDS011;10160;50.926;4.374;2023-05-14T13:35:13;23.50;;;14.02;;
19998;SDS011;10160;50.926;4.374;2023-05-14T13:37:39;23.38;;;13.38;;
19998;SDS011;10160;50.926;4.374;2023-05-14T13:40:06;18.33;;;13.48;;
19998;SDS011;10160;50.926;4.374;2023-05-14T13:42:33;22.38;;;13.63;;
19998;SDS011;10160;50.926;4.374;2023-05-14T13:44:59;22.88;;;14.02;;
19998;SDS011;10160;50.926;4.374;2023-05-14T13:47:25;17.73;;;12.45;;
19998;SDS011;10160;50.926;4.374;2023-05-14T13:49:51;18.48;;;11.95;;
19998;SDS011;10160;50.926;4.374;2023-05-14T13:52:17;23.58;;;12.55;;
19998;SDS011;10160;50.926;4.374;2023-05-14T13:54:43;21.38;;;13.07;;
19998;SDS011;10160;50.926;4.374;2023-05-14T13:57:09;21.70;;;13.00;;
19998;SDS011;10160;50.926;4.374;2023-05-14T13:59:34;20.85;;;12.05;;
19998;SDS011;10160;50.926;4.374;2023-05-14T14:02:00;24.80;;;13.63;;
19998;SDS011;10160;50.926;4.374;2023-05-14T14:04:26;24.65;;;12.52;;
19998;SDS011;10160;50.926;4.374;2023-05-14T14:06:55;19.23;;;12.18;;
19998;SDS011;10160;50.926;4.374;2023-05-14T14:09:21;16.92;;;11.45;;
19998;SDS011;10160;50.926;4.374;2023-05-14T14:11:47;19.52;;;10.40;;
19998;SDS011;10160;50.926;4.374;2023-05-14T14:14:13;22.27;;;10.30;;
19998;SDS011;10160;50.926;4.374;2023-05-14T14:16:40;21.02;;;10.70;;
19998;SDS011;10160;50.926;4.374;2023-05-14T14:19:05;19.27;;;12.07;;
19998;SDS011;10160;50.926;4.374;2023-05-14T14:21:31;23.48;;;11.93;;
19998;SDS011;10160;50.926;4.374;2023-05-14T14:23:58;23.05;;;11.55;;
19998;SDS011;10160;50.926;4.374;2023-05-14T14:26:23;17.15;;;10.48;;
